createdAt,value
2023-03-18T00:00:08.495Z,8.42
2023-03-18T00:01:08.459Z,8.40
2023-03-18T00:02:08.435Z,8.34
2023-03-18T00:03:08.406Z,8.36
2023-03-18T00:04:08.548Z,8.32
2023-03-18T00:05:08.352Z,8.28
2023-03-18T00:06:08.344Z,8.25
2023-03-18T00:07:08.313Z,8.25
2023-03-18T00:08:08.265Z,8.17
2023-03-18T00:09:08.233Z,8.13
2023-03-18T00:10:08.203Z,8.07
2023-03-18T00:11:08.185Z,8.00
2023-03-18T00:12:08.152Z,8.10
2023-03-18T00:13:08.117Z,8.02
2023-03-18T00:14:08.091Z,8.04
2023-03-18T00:15:08.077Z,8.03
2023-03-18T00:16:08.112Z,8.00
2023-03-18T00:17:08.039Z,8.00
2023-03-18T00:18:07.979Z,8.09
2023-03-18T00:19:07.947Z,8.09
2023-03-18T00:20:07.948Z,7.96
2023-03-18T00:21:07.893Z,7.96
2023-03-18T00:22:07.882Z,8.06
2023-03-18T00:23:07.837Z,7.96
2023-03-18T00:24:07.805Z,7.99
2023-03-18T00:25:07.782Z,7.84
2023-03-18T00:26:07.749Z,7.86
2023-03-18T00:27:07.727Z,7.82
2023-03-18T00:28:07.717Z,7.84
2023-03-18T00:29:07.668Z,7.79
2023-03-18T00:30:07.637Z,7.85
2023-03-18T00:31:07.629Z,7.88
2023-03-18T00:32:07.578Z,7.91
2023-03-18T00:33:07.714Z,8.12
2023-03-18T00:34:07.531Z,8.12
2023-03-18T00:35:07.497Z,8.07
2023-03-18T00:36:07.506Z,8.03
2023-03-18T00:37:07.440Z,8.00
2023-03-18T00:38:07.480Z,7.94
2023-03-18T00:39:07.494Z,8.04
2023-03-18T00:40:07.351Z,7.96
2023-03-18T00:41:07.323Z,7.91
2023-03-18T00:42:07.292Z,7.77
2023-03-18T00:43:07.267Z,7.84
2023-03-18T00:44:07.239Z,7.82
2023-03-18T00:45:07.209Z,7.81
2023-03-18T00:46:07.178Z,7.73
2023-03-18T00:47:07.154Z,7.76
2023-03-18T00:48:07.120Z,7.67
2023-03-18T00:49:07.093Z,7.67
2023-03-18T00:50:07.065Z,7.71
2023-03-18T00:51:07.037Z,7.71
2023-03-18T00:52:07.005Z,7.71
2023-03-18T00:53:06.983Z,7.67
2023-03-18T00:54:06.971Z,7.73
2023-03-18T00:55:06.950Z,7.66
2023-03-18T00:56:06.894Z,7.62
2023-03-18T00:57:06.871Z,7.54
2023-03-18T00:58:06.837Z,7.60
2023-03-18T00:59:06.835Z,7.51
2023-03-18T01:00:06.798Z,7.57
2023-03-18T01:01:06.808Z,7.51
2023-03-18T01:02:06.766Z,7.57
2023-03-18T01:03:06.694Z,7.54
2023-03-18T01:04:06.671Z,7.45
2023-03-18T01:05:06.641Z,7.44
2023-03-18T01:06:06.606Z,7.57
2023-03-18T01:07:06.575Z,7.60
2023-03-18T01:08:06.557Z,7.54
2023-03-18T01:09:06.525Z,7.71
2023-03-18T01:10:06.511Z,7.71
2023-03-18T01:11:06.464Z,7.55
2023-03-18T01:12:06.435Z,7.54
2023-03-18T01:13:06.411Z,7.52
2023-03-18T01:14:06.392Z,7.42
2023-03-18T01:15:06.349Z,7.44
2023-03-18T01:16:06.346Z,7.29
2023-03-18T01:17:06.292Z,7.26
2023-03-18T01:18:06.262Z,7.24
2023-03-18T01:19:06.236Z,7.14
2023-03-18T01:20:06.209Z,7.29
2023-03-18T01:21:06.193Z,7.23
2023-03-18T01:22:06.149Z,7.15
2023-03-18T01:23:06.136Z,7.19
2023-03-18T01:24:06.089Z,7.16
2023-03-18T01:25:06.062Z,7.26
2023-03-18T01:26:06.066Z,7.26
2023-03-18T01:27:06.003Z,7.29
2023-03-18T01:28:05.976Z,7.29
2023-03-18T01:29:05.946Z,7.24
2023-03-18T01:30:05.917Z,7.26
2023-03-18T01:31:05.895Z,7.29
2023-03-18T01:32:05.882Z,7.26
2023-03-18T01:33:05.873Z,7.32
2023-03-18T01:34:05.799Z,7.30
2023-03-18T01:35:05.772Z,7.24
2023-03-18T01:36:05.773Z,7.14
2023-03-18T01:37:05.763Z,7.21
2023-03-18T01:38:05.733Z,7.16
2023-03-18T01:39:05.657Z,7.19
2023-03-18T01:40:05.634Z,7.05
2023-03-18T01:41:05.641Z,7.11
2023-03-18T01:42:05.602Z,7.07
2023-03-18T01:43:05.572Z,7.07
2023-03-18T01:44:05.503Z,6.96
2023-03-18T01:45:05.485Z,6.86
2023-03-18T01:46:05.508Z,6.75
2023-03-18T01:47:05.420Z,6.73
2023-03-18T01:48:05.394Z,6.69
2023-03-18T01:49:05.362Z,6.61
2023-03-18T01:50:05.330Z,6.64
2023-03-18T01:51:05.324Z,6.82
2023-03-18T01:52:05.283Z,6.90
2023-03-18T01:53:05.253Z,6.86
2023-03-18T01:54:05.214Z,6.91
2023-03-18T01:55:05.186Z,6.76
2023-03-18T01:56:05.154Z,6.78
2023-03-18T01:57:05.130Z,6.68
2023-03-18T01:58:05.123Z,6.60
2023-03-18T01:59:05.073Z,6.51
2023-03-18T02:00:05.037Z,6.51
2023-03-18T02:01:05.078Z,6.58
2023-03-18T02:02:04.977Z,6.60
2023-03-18T02:03:04.964Z,6.60
2023-03-18T02:04:04.917Z,6.64
2023-03-18T02:05:04.891Z,6.75
2023-03-18T02:06:04.861Z,6.75
2023-03-18T02:07:04.834Z,6.75
2023-03-18T02:08:04.812Z,6.73
2023-03-18T02:09:04.776Z,6.73
2023-03-18T02:10:04.744Z,6.68
2023-03-18T02:11:04.760Z,6.71
2023-03-18T02:12:04.686Z,6.60
2023-03-18T02:13:04.659Z,6.61
2023-03-18T02:14:04.652Z,6.71
2023-03-18T02:15:04.602Z,6.63
2023-03-18T02:16:04.585Z,6.64
2023-03-18T02:17:04.555Z,6.64
2023-03-18T02:18:04.510Z,6.57
2023-03-18T02:19:04.481Z,6.55
2023-03-18T02:20:04.457Z,6.53
2023-03-18T02:21:04.435Z,6.54
2023-03-18T02:22:04.394Z,6.55
2023-03-18T02:23:04.365Z,6.57
2023-03-18T02:24:04.400Z,6.55
2023-03-18T02:25:04.305Z,6.42
2023-03-18T02:26:04.279Z,6.45
2023-03-18T02:27:04.247Z,6.58
2023-03-18T02:28:04.217Z,6.60
2023-03-18T02:29:04.190Z,6.68
2023-03-18T02:30:04.181Z,6.65
2023-03-18T02:31:04.177Z,6.57
2023-03-18T02:32:04.104Z,6.58
2023-03-18T02:33:04.104Z,6.65
2023-03-18T02:34:04.040Z,6.53
2023-03-18T02:35:04.051Z,6.57
2023-03-18T02:36:04.015Z,6.54
2023-03-18T02:37:03.951Z,6.50
2023-03-18T02:38:03.921Z,6.54
2023-03-18T02:39:03.899Z,6.46
2023-03-18T02:40:03.861Z,6.50
2023-03-18T02:41:03.839Z,6.50
2023-03-18T02:42:03.804Z,6.40
2023-03-18T02:43:03.777Z,6.40
2023-03-18T02:44:03.743Z,6.36
2023-03-18T02:45:03.717Z,6.42
2023-03-18T02:46:03.834Z,6.57
2023-03-18T02:47:03.664Z,6.60
2023-03-18T02:48:03.627Z,6.46
2023-03-18T02:49:03.619Z,6.55
2023-03-18T02:50:03.570Z,6.54
2023-03-18T02:51:03.541Z,6.54
2023-03-18T02:52:03.510Z,6.57
2023-03-18T02:53:03.483Z,6.48
2023-03-18T02:54:03.453Z,6.48
2023-03-18T02:55:03.426Z,6.46
2023-03-18T02:56:03.393Z,6.38
2023-03-18T02:57:03.367Z,6.32
2023-03-18T02:58:03.335Z,6.32
2023-03-18T02:59:03.333Z,6.36
2023-03-18T03:00:03.274Z,6.39
2023-03-18T03:01:03.320Z,6.50
2023-03-18T03:02:03.239Z,6.55
2023-03-18T03:03:03.300Z,6.53
2023-03-18T03:04:03.166Z,6.39
2023-03-18T03:05:03.136Z,6.40
2023-03-18T03:06:03.099Z,6.35
2023-03-18T03:07:03.075Z,6.32
2023-03-18T03:08:03.041Z,6.21
2023-03-18T03:09:03.012Z,6.24
2023-03-18T03:10:02.980Z,6.32
2023-03-18T03:11:02.961Z,6.20
2023-03-18T03:12:02.933Z,6.35
2023-03-18T03:13:02.901Z,6.33
2023-03-18T03:14:02.866Z,6.35
2023-03-18T03:15:02.859Z,6.28
2023-03-18T03:16:02.903Z,6.35
2023-03-18T03:17:02.779Z,6.36
2023-03-18T03:18:02.766Z,6.33
2023-03-18T03:19:02.722Z,6.28
2023-03-18T03:20:02.684Z,6.24
2023-03-18T03:21:02.655Z,6.10
2023-03-18T03:22:02.629Z,6.10
2023-03-18T03:23:02.601Z,6.16
2023-03-18T03:24:02.569Z,6.13
2023-03-18T03:25:02.537Z,6.10
2023-03-18T03:26:02.525Z,6.16
2023-03-18T03:27:02.513Z,6.13
2023-03-18T03:28:02.456Z,6.11
2023-03-18T03:29:02.419Z,6.16
2023-03-18T03:30:02.390Z,5.99
2023-03-18T03:31:02.461Z,6.05
2023-03-18T03:32:02.329Z,5.95
2023-03-18T03:33:02.389Z,6.06
2023-03-18T03:34:02.415Z,5.98
2023-03-18T03:35:02.241Z,6.05
2023-03-18T03:36:02.242Z,5.98
2023-03-18T03:37:02.182Z,5.96
2023-03-18T03:38:02.150Z,5.92
2023-03-18T03:39:02.130Z,5.92
2023-03-18T03:40:02.095Z,5.88
2023-03-18T03:41:02.064Z,5.87
2023-03-18T03:42:02.029Z,5.81
2023-03-18T03:43:02.021Z,5.87
2023-03-18T03:44:01.979Z,5.85
2023-03-18T03:45:01.995Z,5.84
2023-03-18T03:46:01.918Z,5.85
2023-03-18T03:47:01.883Z,5.83
2023-03-18T03:48:01.853Z,5.77
2023-03-18T03:49:01.823Z,5.70
2023-03-18T03:50:01.853Z,5.65
2023-03-18T03:51:02.089Z,5.70
2023-03-18T03:52:01.736Z,5.65
2023-03-18T03:53:01.707Z,5.70
2023-03-18T03:54:01.675Z,5.74
2023-03-18T03:55:01.659Z,5.66
2023-03-18T03:56:01.618Z,5.74
2023-03-18T03:57:01.584Z,5.74
2023-03-18T03:58:01.557Z,5.70
2023-03-18T03:59:01.524Z,5.85
2023-03-18T04:00:01.501Z,6.02
2023-03-18T04:01:01.468Z,6.13
2023-03-18T04:02:01.448Z,6.08
2023-03-18T04:03:01.482Z,6.10
2023-03-18T04:04:01.435Z,6.03
2023-03-18T04:05:01.345Z,6.06
2023-03-18T04:06:01.338Z,6.05
2023-03-18T04:07:01.289Z,5.98
2023-03-18T04:08:01.258Z,6.03
2023-03-18T04:09:01.227Z,5.88
2023-03-18T04:10:01.194Z,5.92
2023-03-18T04:11:01.166Z,5.99
2023-03-18T04:12:01.134Z,5.85
2023-03-18T04:13:01.107Z,5.93
2023-03-18T04:14:01.086Z,5.92
2023-03-18T04:15:01.050Z,5.92
2023-03-18T04:16:01.061Z,5.88
2023-03-18T04:17:00.986Z,6.01
2023-03-18T04:18:00.960Z,5.99
2023-03-18T04:19:00.926Z,5.84
2023-03-18T04:20:00.896Z,5.88
2023-03-18T04:21:00.868Z,5.73
2023-03-18T04:22:00.859Z,5.84
2023-03-18T04:23:00.812Z,5.84
2023-03-18T04:24:00.776Z,5.88
2023-03-18T04:25:00.780Z,6.13
2023-03-18T04:26:00.719Z,6.16
2023-03-18T04:27:00.690Z,6.25
2023-03-18T04:28:00.655Z,6.32
2023-03-18T04:29:00.633Z,6.38
2023-03-18T04:30:00.616Z,6.38
2023-03-18T04:31:00.636Z,6.46
2023-03-18T04:32:00.549Z,6.45
2023-03-18T04:33:00.584Z,6.40
2023-03-18T04:34:00.475Z,6.35
2023-03-18T04:35:00.448Z,6.38
2023-03-18T04:36:00.440Z,6.21
2023-03-18T04:37:00.396Z,6.05
2023-03-18T04:38:00.478Z,6.02
2023-03-18T04:39:00.336Z,6.05
2023-03-18T04:40:00.296Z,5.85
2023-03-18T04:41:00.264Z,5.85
2023-03-18T04:42:00.236Z,5.75
2023-03-18T04:43:00.210Z,5.69
2023-03-18T04:44:00.176Z,5.62
2023-03-18T04:45:00.143Z,5.58
2023-03-18T04:46:00.125Z,5.59
2023-03-18T04:47:00.182Z,5.48
2023-03-18T04:48:00.066Z,5.45
2023-03-18T04:49:00.025Z,5.45
2023-03-18T04:50:00.001Z,5.32
2023-03-18T04:50:59.976Z,5.24
2023-03-18T04:51:59.934Z,5.35
2023-03-18T04:52:59.904Z,5.44
2023-03-18T04:53:59.899Z,5.63
2023-03-18T04:54:59.845Z,5.66
2023-03-18T04:55:59.816Z,5.73
2023-03-18T04:56:59.819Z,5.74
2023-03-18T04:57:59.757Z,5.70
2023-03-18T04:58:59.724Z,5.77
2023-03-18T04:59:59.694Z,5.62
2023-03-18T05:00:59.705Z,5.48
2023-03-18T05:01:59.635Z,5.47
2023-03-18T05:02:59.620Z,5.44
2023-03-18T05:03:59.636Z,5.44
2023-03-18T05:04:59.544Z,5.48
2023-03-18T05:05:59.514Z,5.49
2023-03-18T05:06:59.483Z,5.47
2023-03-18T05:07:59.452Z,5.44
2023-03-18T05:08:59.421Z,5.30
2023-03-18T05:09:59.413Z,5.24
2023-03-18T05:10:59.362Z,5.23
2023-03-18T05:11:59.332Z,5.26
2023-03-18T05:12:59.309Z,5.17
2023-03-18T05:13:59.272Z,5.12
2023-03-18T05:14:59.245Z,5.14
2023-03-18T05:15:59.220Z,5.08
2023-03-18T05:16:59.181Z,5.02
2023-03-18T05:17:59.152Z,5.08
2023-03-18T05:18:59.120Z,4.99
2023-03-18T05:19:59.090Z,5.05
2023-03-18T05:20:59.063Z,5.02
2023-03-18T05:21:59.031Z,5.09
2023-03-18T05:22:58.998Z,5.06
2023-03-18T05:23:58.969Z,5.06
2023-03-18T05:24:58.944Z,5.05
2023-03-18T05:25:58.942Z,5.01
2023-03-18T05:26:58.932Z,4.99
2023-03-18T05:27:58.849Z,4.96
2023-03-18T05:28:58.817Z,4.83
2023-03-18T05:29:58.791Z,4.94
2023-03-18T05:30:58.760Z,4.97
2023-03-18T05:31:58.772Z,5.15
2023-03-18T05:32:58.778Z,5.15
2023-03-18T05:33:58.671Z,5.17
2023-03-18T05:34:58.641Z,5.23
2023-03-18T05:35:58.675Z,5.26
2023-03-18T05:36:58.583Z,5.33
2023-03-18T05:37:58.550Z,5.26
2023-03-18T05:38:58.515Z,5.23
2023-03-18T05:39:58.483Z,5.35
2023-03-18T05:40:58.452Z,5.38
2023-03-18T05:41:58.441Z,5.40
2023-03-18T05:42:58.393Z,5.48
2023-03-18T05:43:58.361Z,5.63
2023-03-18T05:44:58.340Z,5.66
2023-03-18T05:45:58.373Z,5.75
2023-03-18T05:46:58.272Z,5.81
2023-03-18T05:47:58.240Z,5.73
2023-03-18T05:48:58.208Z,5.81
2023-03-18T05:49:58.179Z,5.84
2023-03-18T05:50:58.166Z,5.84
2023-03-18T05:51:58.120Z,5.78
2023-03-18T05:52:58.088Z,5.78
2023-03-18T05:53:58.060Z,5.83
2023-03-18T05:54:58.031Z,5.90
2023-03-18T05:55:58.002Z,5.87
2023-03-18T05:56:57.968Z,5.93
2023-03-18T05:57:57.962Z,5.90
2023-03-18T05:58:57.910Z,5.92
2023-03-18T05:59:57.880Z,5.98
2023-03-18T06:00:57.861Z,5.92
2023-03-18T06:01:57.874Z,5.83
2023-03-18T06:02:57.825Z,5.84
2023-03-18T06:03:57.763Z,5.87
2023-03-18T06:04:57.729Z,5.84
2023-03-18T06:05:57.701Z,5.85
2023-03-18T06:06:57.670Z,5.83
2023-03-18T06:07:57.639Z,5.88
2023-03-18T06:08:57.627Z,5.83
2023-03-18T06:09:57.582Z,5.83
2023-03-18T06:10:57.555Z,5.75
2023-03-18T06:11:57.523Z,5.83
2023-03-18T06:12:57.489Z,5.81
2023-03-18T06:13:57.482Z,5.75
2023-03-18T06:14:57.432Z,5.80
2023-03-18T06:15:57.400Z,5.84
2023-03-18T06:16:57.457Z,5.85
2023-03-18T06:17:57.347Z,5.90
2023-03-18T06:18:57.311Z,5.84
2023-03-18T06:19:57.281Z,5.99
2023-03-18T06:20:57.268Z,5.92
2023-03-18T06:21:57.221Z,5.88
2023-03-18T06:22:57.195Z,5.90
2023-03-18T06:23:57.161Z,5.85
2023-03-18T06:24:57.130Z,5.84
2023-03-18T06:25:57.106Z,5.88
2023-03-18T06:26:57.070Z,5.90
2023-03-18T06:27:57.041Z,5.96
2023-03-18T06:28:57.010Z,5.87
2023-03-18T06:29:57.009Z,5.84
2023-03-18T06:30:57.003Z,5.98
2023-03-18T06:31:56.931Z,5.90
2023-03-18T06:32:56.952Z,5.88
2023-03-18T06:33:56.863Z,6.03
2023-03-18T06:34:56.832Z,5.99
2023-03-18T06:35:56.863Z,6.03
2023-03-18T06:36:56.778Z,6.08
2023-03-18T06:37:56.747Z,5.99
2023-03-18T06:38:56.723Z,6.02
2023-03-18T06:39:56.687Z,5.95
2023-03-18T06:40:56.655Z,6.11
2023-03-18T06:41:56.654Z,6.10
2023-03-18T06:42:56.592Z,6.06
2023-03-18T06:43:56.563Z,6.06
2023-03-18T06:44:56.535Z,6.20
2023-03-18T06:45:56.552Z,6.10
2023-03-18T06:46:56.473Z,6.14
2023-03-18T06:47:56.444Z,6.10
2023-03-18T06:48:56.419Z,6.25
2023-03-18T06:49:56.401Z,6.28
2023-03-18T06:50:56.354Z,6.28
2023-03-18T06:51:56.325Z,6.27
2023-03-18T06:52:56.302Z,6.33
2023-03-18T06:53:56.271Z,6.40
2023-03-18T06:54:56.237Z,6.39
2023-03-18T06:55:56.207Z,6.38
2023-03-18T06:56:56.179Z,6.51
2023-03-18T06:57:56.148Z,6.55
2023-03-18T06:58:56.118Z,6.53
2023-03-18T06:59:56.088Z,6.60
2023-03-18T07:00:56.135Z,6.72
2023-03-18T07:01:56.178Z,6.82
2023-03-18T07:02:56.004Z,6.72
2023-03-18T07:03:55.973Z,6.79
2023-03-18T07:04:55.938Z,6.81
2023-03-18T07:05:55.911Z,6.91
2023-03-18T07:06:55.885Z,6.97
2023-03-18T07:07:55.848Z,7.01
2023-03-18T07:08:55.819Z,7.07
2023-03-18T07:09:55.793Z,7.04
2023-03-18T07:10:57.709Z,7.05
2023-03-18T07:11:55.737Z,7.11
2023-03-18T07:12:55.700Z,7.24
2023-03-18T07:13:55.676Z,7.24
2023-03-18T07:14:55.643Z,7.19
2023-03-18T07:15:55.654Z,7.26
2023-03-18T07:16:55.584Z,7.27
2023-03-18T07:17:55.616Z,7.32
2023-03-18T07:18:55.526Z,7.44
2023-03-18T07:19:55.497Z,7.48
2023-03-18T07:20:55.467Z,7.45
2023-03-18T07:21:55.437Z,7.58
2023-03-18T07:22:55.416Z,7.52
2023-03-18T07:23:55.607Z,7.55
2023-03-18T07:24:55.349Z,7.55
2023-03-18T07:25:55.320Z,7.54
2023-03-18T07:26:55.294Z,7.67
2023-03-18T07:27:55.262Z,7.74
2023-03-18T07:28:55.230Z,7.74
2023-03-18T07:29:55.202Z,7.77
2023-03-18T07:30:55.194Z,7.82
2023-03-18T07:31:55.148Z,7.88
2023-03-18T07:32:55.172Z,7.88
2023-03-18T07:33:55.110Z,7.94
2023-03-18T07:34:55.056Z,7.84
2023-03-18T07:35:55.054Z,7.96
2023-03-18T07:36:54.999Z,8.03
2023-03-18T07:37:54.969Z,8.10
2023-03-18T07:38:54.948Z,8.10
2023-03-18T07:39:54.911Z,8.18
2023-03-18T07:40:54.881Z,8.31
2023-03-18T07:41:54.858Z,8.31
2023-03-18T07:42:54.829Z,8.34
2023-03-18T07:43:54.794Z,8.37
2023-03-18T07:44:54.767Z,8.32
2023-03-18T07:45:54.737Z,8.47
2023-03-18T07:46:54.707Z,8.43
2023-03-18T07:47:54.679Z,8.52
2023-03-18T07:48:54.647Z,8.60
2023-03-18T07:49:54.639Z,8.63
2023-03-18T07:50:54.589Z,8.71
2023-03-18T07:51:54.563Z,8.70
2023-03-18T07:52:54.533Z,8.79
2023-03-18T07:53:54.508Z,8.89
2023-03-18T07:54:54.476Z,8.89
2023-03-18T07:55:54.448Z,8.94
2023-03-18T07:56:54.611Z,8.94
2023-03-18T07:57:54.391Z,9.01
2023-03-18T07:58:54.366Z,9.03
2023-03-18T07:59:54.336Z,9.10
2023-03-18T08:00:54.309Z,9.12
2023-03-18T08:01:54.281Z,9.12
2023-03-18T08:02:54.244Z,9.20
2023-03-18T08:03:54.242Z,9.26
2023-03-18T08:04:54.218Z,9.31
2023-03-18T08:05:54.188Z,9.42
2023-03-18T08:06:54.136Z,9.44
2023-03-18T08:07:54.105Z,9.50
2023-03-18T08:08:54.081Z,9.55
2023-03-18T08:09:54.053Z,9.50
2023-03-18T08:10:54.020Z,9.55
2023-03-18T08:11:54.014Z,9.58
2023-03-18T08:12:54.202Z,9.67
2023-03-18T08:13:53.934Z,9.71
2023-03-18T08:14:53.905Z,9.67
2023-03-18T08:15:53.992Z,9.71
2023-03-18T08:16:53.857Z,9.83
2023-03-18T08:17:53.939Z,9.77
2023-03-18T08:18:53.792Z,9.86
2023-03-18T08:19:53.763Z,9.89
2023-03-18T08:20:53.734Z,9.89
2023-03-18T08:21:53.725Z,9.91
2023-03-18T08:22:53.679Z,9.89
2023-03-18T08:23:53.657Z,9.96
2023-03-18T08:24:53.621Z,9.98
2023-03-18T08:25:53.602Z,10.06
2023-03-18T08:26:53.563Z,10.11
2023-03-18T08:27:53.555Z,10.04
2023-03-18T08:28:53.525Z,10.14
2023-03-18T08:29:53.483Z,10.14
2023-03-18T08:30:53.455Z,10.28
2023-03-18T08:31:53.492Z,10.26
2023-03-18T08:32:53.445Z,10.28
2023-03-18T08:33:53.371Z,10.31
2023-03-18T08:34:53.341Z,10.32
2023-03-18T08:35:53.334Z,10.39
2023-03-18T08:36:53.409Z,10.58
2023-03-18T08:37:53.406Z,10.54
2023-03-18T08:38:53.228Z,10.63
2023-03-18T08:39:53.209Z,10.62
2023-03-18T08:40:53.175Z,10.73
2023-03-18T08:41:53.144Z,10.73
2023-03-18T08:42:53.119Z,10.80
2023-03-18T08:43:53.094Z,10.78
2023-03-18T08:44:53.061Z,10.84
2023-03-18T08:45:53.052Z,10.95
2023-03-18T08:46:53.016Z,10.90
2023-03-18T08:47:52.997Z,10.95
2023-03-18T08:48:52.955Z,10.94
2023-03-18T08:49:52.952Z,10.95
2023-03-18T08:50:52.903Z,11.02
2023-03-18T08:51:52.870Z,11.06
2023-03-18T08:52:52.840Z,11.05
2023-03-18T08:53:52.834Z,11.08
2023-03-18T08:54:52.792Z,11.11
2023-03-18T08:55:52.759Z,11.13
2023-03-18T08:56:52.736Z,11.20
2023-03-18T08:57:52.703Z,11.21
2023-03-18T08:58:52.678Z,11.19
2023-03-18T08:59:52.649Z,11.17
2023-03-18T09:00:52.669Z,11.31
2023-03-18T09:01:52.593Z,11.31
2023-03-18T09:02:52.567Z,11.28
2023-03-18T09:03:52.583Z,11.51
2023-03-18T09:04:52.513Z,11.56
2023-03-18T09:05:52.485Z,11.69
2023-03-18T09:06:52.475Z,11.74
2023-03-18T09:07:52.432Z,11.75
2023-03-18T09:08:52.403Z,11.82
2023-03-18T09:09:52.401Z,11.77
2023-03-18T09:10:52.366Z,11.85
2023-03-18T09:11:52.320Z,11.97
2023-03-18T09:12:52.294Z,12.00
2023-03-18T09:13:52.269Z,12.00
2023-03-18T09:14:52.241Z,12.00
2023-03-18T09:15:52.211Z,12.07
2023-03-18T09:16:52.227Z,12.11
2023-03-18T09:18:08.399Z,12.16
2023-03-18T09:18:52.129Z,12.19
2023-03-18T09:19:52.100Z,12.31
2023-03-18T09:20:52.077Z,12.31
2023-03-18T09:21:52.045Z,12.26
2023-03-18T09:22:52.041Z,12.41
2023-03-18T09:23:51.999Z,12.38
2023-03-18T09:24:51.968Z,12.44
2023-03-18T09:25:51.955Z,12.48
2023-03-18T09:26:51.910Z,12.56
2023-03-18T09:27:51.885Z,12.61
2023-03-18T09:28:51.861Z,12.55
2023-03-18T09:29:51.914Z,12.62
2023-03-18T09:30:51.888Z,12.51
2023-03-18T09:31:51.778Z,12.55
2023-03-18T09:32:51.764Z,12.58
2023-03-18T09:33:51.722Z,12.74
2023-03-18T09:34:51.694Z,12.74
2023-03-18T09:35:51.696Z,12.85
2023-03-18T09:36:51.781Z,12.91
2023-03-18T09:37:51.611Z,13.04
2023-03-18T09:38:51.595Z,12.94
2023-03-18T09:39:51.559Z,13.04
2023-03-18T09:40:51.534Z,12.89
2023-03-18T09:41:51.522Z,12.95
2023-03-18T09:42:51.477Z,12.79
2023-03-18T09:43:51.451Z,12.81
2023-03-18T09:44:51.435Z,12.92
2023-03-18T09:45:51.497Z,12.92
2023-03-18T09:46:51.537Z,12.91
2023-03-18T09:47:51.344Z,12.94
2023-03-18T09:48:51.321Z,12.91
2023-03-18T09:49:51.291Z,12.95
2023-03-18T09:50:51.264Z,13.03
2023-03-18T09:51:51.245Z,13.01
2023-03-18T09:52:51.216Z,12.98
2023-03-18T09:53:51.187Z,13.01
2023-03-18T09:54:51.173Z,12.98
2023-03-18T09:55:51.130Z,13.32
2023-03-18T09:56:51.104Z,13.43
2023-03-18T09:57:51.100Z,13.21
2023-03-18T09:58:51.053Z,13.12
2023-03-18T09:59:51.024Z,13.12
2023-03-18T10:00:51.003Z,13.17
2023-03-18T10:01:50.985Z,13.31
2023-03-18T10:02:50.948Z,13.50
2023-03-18T10:03:51.023Z,13.46
2023-03-18T10:04:50.894Z,13.41
2023-03-18T10:05:50.870Z,13.54
2023-03-18T10:06:50.856Z,13.51
2023-03-18T10:07:50.826Z,13.47
2023-03-18T10:08:50.795Z,13.51
2023-03-18T10:09:50.763Z,13.46
2023-03-18T10:10:50.734Z,13.68
2023-03-18T10:11:50.707Z,13.54
2023-03-18T10:12:50.709Z,13.68
2023-03-18T10:13:50.675Z,13.66
2023-03-18T10:14:50.630Z,13.68
2023-03-18T10:15:50.633Z,13.61
2023-03-18T10:16:50.582Z,13.63
2023-03-18T10:17:50.559Z,13.69
2023-03-18T10:18:50.524Z,13.71
2023-03-18T10:19:50.499Z,13.65
2023-03-18T10:20:50.480Z,13.63
2023-03-18T10:21:50.448Z,13.72
2023-03-18T10:22:50.428Z,13.73
2023-03-18T10:23:50.391Z,13.71
2023-03-18T10:24:50.375Z,13.79
2023-03-18T10:25:50.337Z,13.69
2023-03-18T10:26:50.314Z,13.76
2023-03-18T10:27:50.292Z,13.72
2023-03-18T10:28:50.258Z,13.90
2023-03-18T10:29:50.252Z,13.80
2023-03-18T10:30:50.262Z,14.02
2023-03-18T10:31:50.192Z,14.08
2023-03-18T10:32:50.652Z,14.26
2023-03-18T10:33:50.130Z,14.34
2023-03-18T10:34:50.105Z,14.30
2023-03-18T10:35:50.099Z,14.35
2023-03-18T10:36:50.055Z,14.31
2023-03-18T10:37:50.038Z,14.17
2023-03-18T10:38:50.001Z,14.30
2023-03-18T10:39:49.976Z,14.27
2023-03-18T10:40:49.967Z,14.27
2023-03-18T10:41:49.957Z,14.31
2023-03-18T10:42:49.903Z,14.34
2023-03-18T10:43:49.873Z,14.44
2023-03-18T10:44:49.844Z,14.45
2023-03-18T10:45:49.849Z,14.44
2023-03-18T10:46:49.963Z,14.60
2023-03-18T10:47:49.767Z,14.64
2023-03-18T10:48:49.747Z,14.69
2023-03-18T10:49:49.714Z,14.75
2023-03-18T10:50:49.705Z,14.79
2023-03-18T10:51:49.662Z,14.63
2023-03-18T10:52:49.646Z,14.61
2023-03-18T10:53:49.612Z,14.60
2023-03-18T10:54:49.586Z,14.57
2023-03-18T10:55:49.559Z,14.53
2023-03-18T10:56:49.538Z,14.61
2023-03-18T10:57:49.514Z,14.67
2023-03-18T10:58:49.482Z,14.66
2023-03-18T10:59:49.456Z,14.61
2023-03-18T11:00:49.430Z,14.75
2023-03-18T11:01:49.445Z,14.60
2023-03-18T11:02:49.743Z,14.53
2023-03-18T11:03:49.353Z,14.49
2023-03-18T11:04:49.328Z,14.48
2023-03-18T11:05:49.304Z,14.52
2023-03-18T11:06:49.278Z,14.63
2023-03-18T11:07:49.252Z,14.54
2023-03-18T11:08:49.227Z,14.59
2023-03-18T11:09:49.202Z,14.54
2023-03-18T11:10:49.175Z,14.57
2023-03-18T11:11:49.151Z,14.64
2023-03-18T11:12:49.123Z,14.66
2023-03-18T11:13:49.099Z,14.78
2023-03-18T11:14:49.070Z,14.71
2023-03-18T11:15:49.075Z,14.63
2023-03-18T11:16:49.020Z,14.79
2023-03-18T11:17:49.019Z,14.78
2023-03-18T11:18:48.972Z,14.90
2023-03-18T11:19:48.941Z,14.90
2023-03-18T11:20:48.918Z,14.94
2023-03-18T11:21:48.899Z,14.90
2023-03-18T11:22:48.867Z,14.93
2023-03-18T11:23:48.879Z,14.82
2023-03-18T11:24:48.826Z,14.91
2023-03-18T11:25:48.813Z,14.97
2023-03-18T11:26:48.764Z,15.01
2023-03-18T11:27:48.752Z,15.11
2023-03-18T11:28:48.720Z,15.15
2023-03-18T11:29:48.687Z,15.16
2023-03-18T11:30:48.673Z,15.20
2023-03-18T11:31:48.637Z,15.34
2023-03-18T11:32:48.630Z,15.38
2023-03-18T11:33:48.603Z,15.55
2023-03-18T11:34:48.560Z,15.51
2023-03-18T11:35:48.568Z,15.58
2023-03-18T11:36:48.507Z,15.64
2023-03-18T11:37:48.484Z,15.56
2023-03-18T11:38:48.457Z,15.66
2023-03-18T11:39:48.431Z,15.73
2023-03-18T11:40:48.409Z,15.77
2023-03-18T11:41:48.379Z,15.71
2023-03-18T11:42:48.355Z,15.34
2023-03-18T11:43:48.326Z,15.37
2023-03-18T11:44:48.310Z,15.41
2023-03-18T11:45:48.277Z,15.46
2023-03-18T11:46:48.305Z,15.44
2023-03-18T11:47:48.226Z,15.53
2023-03-18T11:48:48.201Z,15.49
2023-03-18T11:49:48.192Z,15.53
2023-03-18T11:50:48.152Z,15.64
2023-03-18T11:51:48.123Z,15.44
2023-03-18T11:52:48.099Z,15.60
2023-03-18T11:53:48.085Z,15.66
2023-03-18T11:54:48.050Z,15.64
2023-03-18T11:55:48.029Z,15.73
2023-03-18T11:56:48.015Z,15.81
2023-03-18T11:57:47.988Z,15.81
2023-03-18T11:58:47.953Z,15.80
2023-03-18T11:59:47.928Z,15.84
2023-03-18T12:00:47.902Z,15.86
2023-03-18T12:01:47.956Z,15.93
2023-03-18T12:02:47.854Z,15.96
2023-03-18T12:03:47.826Z,15.99
2023-03-18T12:04:47.808Z,15.85
2023-03-18T12:05:47.795Z,15.88
2023-03-18T12:06:47.757Z,16.07
2023-03-18T12:07:47.725Z,15.98
2023-03-18T12:08:47.704Z,16.07
2023-03-18T12:09:47.677Z,15.98
2023-03-18T12:10:47.656Z,16.08
2023-03-18T12:11:47.629Z,16.17
2023-03-18T12:12:47.607Z,16.11
2023-03-18T12:13:47.580Z,16.14
2023-03-18T12:14:47.555Z,16.18
2023-03-18T12:15:47.531Z,16.22
2023-03-18T12:16:47.548Z,16.29
2023-03-18T12:17:47.487Z,16.33
2023-03-18T12:18:47.457Z,16.50
2023-03-18T12:19:47.431Z,16.51
2023-03-18T12:20:47.408Z,16.55
2023-03-18T12:21:47.402Z,16.51
2023-03-18T12:22:47.359Z,16.33
2023-03-18T12:23:49.729Z,16.41
2023-03-18T12:24:47.311Z,16.37
2023-03-18T12:25:47.286Z,16.48
2023-03-18T12:26:47.262Z,16.42
2023-03-18T12:27:47.234Z,16.44
2023-03-18T12:28:47.216Z,16.40
2023-03-18T12:29:47.188Z,16.41
2023-03-18T12:30:47.168Z,16.26
2023-03-18T12:31:47.266Z,16.29
2023-03-18T12:32:47.125Z,16.14
2023-03-18T12:33:47.090Z,15.99
2023-03-18T12:34:47.065Z,16.06
2023-03-18T12:35:47.134Z,16.01
2023-03-18T12:36:47.021Z,16.03
2023-03-18T12:37:47.048Z,15.93
2023-03-18T12:38:46.973Z,16.06
2023-03-18T12:39:46.943Z,16.03
2023-03-18T12:40:46.918Z,15.92
2023-03-18T12:41:46.917Z,15.89
2023-03-18T12:42:46.875Z,15.92
2023-03-18T12:43:46.842Z,16.03
2023-03-18T12:44:46.824Z,16.04
2023-03-18T12:45:46.897Z,16.17
2023-03-18T12:46:46.776Z,16.33
2023-03-18T12:47:46.772Z,16.50
2023-03-18T12:48:46.721Z,16.48
2023-03-18T12:49:46.695Z,16.52
2023-03-18T12:50:46.698Z,16.63
2023-03-18T12:51:46.691Z,16.66
2023-03-18T12:52:46.622Z,16.66
2023-03-18T12:53:46.649Z,16.70
2023-03-18T12:54:46.608Z,16.72
2023-03-18T12:55:46.548Z,16.66
2023-03-18T12:56:46.537Z,16.78
2023-03-18T12:57:46.502Z,16.78
2023-03-18T12:58:46.482Z,16.78
2023-03-18T12:59:46.460Z,16.78
2023-03-18T13:00:46.536Z,16.88
2023-03-18T13:01:46.478Z,16.91
2023-03-18T13:02:46.444Z,17.03
2023-03-18T13:03:46.361Z,17.07
2023-03-18T13:04:46.334Z,17.00
2023-03-18T13:05:46.311Z,16.91
2023-03-18T13:06:46.282Z,16.95
2023-03-18T13:07:46.261Z,17.15
2023-03-18T13:08:46.241Z,17.43